createdAt,value
2017-10-09T00:00:35.745Z,13.03
2017-10-09T00:03:03.506Z,11.43
2017-10-09T00:05:31.030Z,11.65
2017-10-09T00:07:58.554Z,12.63
2017-10-09T00:10:26.970Z,9.13
2017-10-09T00:12:54.995Z,10.90
2017-10-09T00:15:22.558Z,11.60
2017-10-09T00:17:50.319Z,11.95
2017-10-09T00:20:17.878Z,11.77
2017-10-09T00:22:45.743Z,9.15
2017-10-09T00:25:13.328Z,12.13
2017-10-09T00:27:41.707Z,10.85
2017-10-09T00:30:09.803Z,13.45
2017-10-09T00:32:37.668Z,10.30
2017-10-09T00:35:05.187Z,17.27
2017-10-09T00:37:34.517Z,10.93
2017-10-09T00:40:02.140Z,11.50
2017-10-09T00:42:29.695Z,11.73
2017-10-09T00:44:58.281Z,13.97
2017-10-09T00:47:25.942Z,9.87
2017-10-09T00:49:53.542Z,10.23
2017-10-09T00:52:21.064Z,12.48
2017-10-09T00:54:50.617Z,11.23
2017-10-09T00:57:18.159Z,18.45
2017-10-09T00:59:45.683Z,10.30
2017-10-09T01:02:14.062Z,11.70
2017-10-09T01:04:41.622Z,15.07
2017-10-09T01:07:09.181Z,10.00
2017-10-09T01:09:36.944Z,13.25
2017-10-09T01:12:04.494Z,12.80
2017-10-09T01:14:32.018Z,9.43
2017-10-09T01:16:59.567Z,13.63
2017-10-09T01:19:27.098Z,12.63
2017-10-09T01:21:54.621Z,13.25
2017-10-09T01:24:22.503Z,12.40
2017-10-09T01:26:50.068Z,11.77
2017-10-09T01:29:17.624Z,18.63
2017-10-09T01:31:46.205Z,13.10
2017-10-09T01:34:13.777Z,11.07
2017-10-09T01:36:41.323Z,15.93
2017-10-09T01:39:09.272Z,12.23
2017-10-09T01:41:36.786Z,13.37
2017-10-09T01:44:04.550Z,17.20
2017-10-09T01:46:32.381Z,11.02
2017-10-09T01:48:59.939Z,10.57
2017-10-09T01:51:27.499Z,11.27
2017-10-09T01:53:55.243Z,13.67
2017-10-09T01:56:22.761Z,14.30
2017-10-09T01:58:50.278Z,12.30
2017-10-09T02:01:18.023Z,15.10
2017-10-09T02:03:45.540Z,12.97
2017-10-09T02:06:13.067Z,19.33
2017-10-09T02:08:40.997Z,14.53
2017-10-09T02:11:08.505Z,15.87
2017-10-09T02:13:36.042Z,16.63
2017-10-09T02:16:03.927Z,19.20
2017-10-09T02:18:31.470Z,15.50
2017-10-09T02:20:59.862Z,18.40
2017-10-09T02:23:27.514Z,17.20
2017-10-09T02:25:55.066Z,16.07
2017-10-09T02:28:22.627Z,15.30
2017-10-09T02:30:50.387Z,17.40
2017-10-09T02:33:17.949Z,14.77
2017-10-09T02:35:45.507Z,16.00
2017-10-09T02:38:13.080Z,13.80
2017-10-09T02:40:40.636Z,15.70
2017-10-09T02:43:08.151Z,14.23
2017-10-09T02:45:35.830Z,14.98
2017-10-09T02:48:03.555Z,14.93
2017-10-09T02:50:31.101Z,17.83
2017-10-09T02:52:59.166Z,16.13
2017-10-09T02:55:26.731Z,16.43
2017-10-09T02:57:54.238Z,13.97
2017-10-09T03:00:21.890Z,12.27
2017-10-09T03:02:49.408Z,12.40
2017-10-09T03:05:17.015Z,17.67
2017-10-09T03:07:44.606Z,13.83
2017-10-09T03:10:12.130Z,13.70
2017-10-09T03:12:39.641Z,16.47
2017-10-09T03:15:07.558Z,27.23
2017-10-09T03:17:35.083Z,13.93
2017-10-09T03:20:02.643Z,16.53
2017-10-09T03:25:46.662Z,15.20
2017-10-09T03:28:14.918Z,15.75
2017-10-09T03:30:42.496Z,13.30
2017-10-09T03:33:10.057Z,19.80
2017-10-09T03:35:37.682Z,16.50
2017-10-09T03:38:05.215Z,15.80
2017-10-09T03:40:32.733Z,14.80
2017-10-09T03:43:00.391Z,23.47
2017-10-09T03:45:27.952Z,17.10
2017-10-09T03:47:56.023Z,18.70
2017-10-09T03:50:23.827Z,22.98
2017-10-09T03:52:52.370Z,19.73
2017-10-09T03:55:20.850Z,23.03
2017-10-09T03:57:48.806Z,29.27
2017-10-09T04:00:16.327Z,20.93
2017-10-09T04:02:43.854Z,19.10
2017-10-09T04:05:12.418Z,19.10
2017-10-09T04:07:39.977Z,20.90
2017-10-09T04:10:07.518Z,16.75
2017-10-09T04:12:35.197Z,19.63
2017-10-09T04:15:02.758Z,23.73
2017-10-09T04:17:30.266Z,16.37
2017-10-09T04:19:58.181Z,22.23
2017-10-09T04:22:25.694Z,17.07
2017-10-09T04:24:53.218Z,21.60
2017-10-09T04:27:20.949Z,18.87
2017-10-09T04:29:48.477Z,18.80
2017-10-09T04:32:16.022Z,19.20
2017-10-09T04:34:43.742Z,19.93
2017-10-09T04:37:11.300Z,17.50
2017-10-09T04:39:38.828Z,24.47
2017-10-09T04:42:06.506Z,20.02
2017-10-09T04:44:34.027Z,17.50
2017-10-09T04:47:01.551Z,22.53
2017-10-09T04:49:29.454Z,26.37
2017-10-09T04:51:56.990Z,26.17
2017-10-09T04:54:24.624Z,28.17
2017-10-09T04:56:52.370Z,24.50
2017-10-09T04:59:19.976Z,25.23
2017-10-09T05:01:47.506Z,26.77
2017-10-09T05:04:15.782Z,29.30
2017-10-09T05:06:43.336Z,32.50
2017-10-09T05:09:10.898Z,26.42
2017-10-09T05:11:38.474Z,33.65
2017-10-09T05:14:06.018Z,33.33
2017-10-09T05:16:33.564Z,31.12
2017-10-09T05:19:01.138Z,41.17
2017-10-09T05:21:28.694Z,34.40
2017-10-09T05:23:56.645Z,42.57
2017-10-09T05:26:24.632Z,47.75
2017-10-09T05:28:52.191Z,42.50
2017-10-09T05:31:19.750Z,44.47
2017-10-09T05:33:47.464Z,48.15
2017-10-09T05:36:14.998Z,50.42
2017-10-09T05:38:42.549Z,48.65
2017-10-09T05:41:10.295Z,51.92
2017-10-09T05:43:37.854Z,48.42
2017-10-09T05:46:05.422Z,51.03
2017-10-09T05:48:33.175Z,51.15
2017-10-09T05:51:00.739Z,52.78
2017-10-09T05:53:28.295Z,57.00
2017-10-09T05:55:56.467Z,47.13
2017-10-09T05:58:24.027Z,46.70
2017-10-09T06:00:51.563Z,47.03
2017-10-09T06:03:19.144Z,48.95
2017-10-09T06:05:46.663Z,52.13
2017-10-09T06:08:14.190Z,44.88
2017-10-09T06:10:41.778Z,46.92
2017-10-09T06:13:09.319Z,51.05
2017-10-09T06:15:36.846Z,49.33
2017-10-09T06:18:04.791Z,44.53
2017-10-09T06:20:32.315Z,54.43
2017-10-09T06:22:59.834Z,44.13
2017-10-09T06:25:27.512Z,54.50
2017-10-09T06:27:55.055Z,49.78
2017-10-09T06:30:22.586Z,49.42
2017-10-09T06:32:50.426Z,48.87
2017-10-09T06:35:17.953Z,51.27
2017-10-09T06:37:45.492Z,41.45
2017-10-09T06:40:13.252Z,41.88
2017-10-09T06:42:40.829Z,38.30
2017-10-09T06:47:42.401Z,44.85
2017-10-09T06:50:09.955Z,44.77
2017-10-09T06:52:37.476Z,41.50
2017-10-09T06:55:06.386Z,41.27
2017-10-09T06:57:33.947Z,54.60
2017-10-09T07:00:02.653Z,35.60
2017-10-09T07:02:30.484Z,37.80
2017-10-09T07:04:58.003Z,40.37
2017-10-09T07:07:25.569Z,37.60
2017-10-09T07:09:53.286Z,39.10
2017-10-09T07:12:20.835Z,37.83
2017-10-09T07:14:48.406Z,33.07
2017-10-09T07:17:15.954Z,30.30
2017-10-09T07:19:43.512Z,44.07
2017-10-09T07:22:11.074Z,33.47
2017-10-09T07:24:38.818Z,34.27
2017-10-09T07:27:06.395Z,38.57
2017-10-09T07:29:33.954Z,36.23
2017-10-09T07:32:01.528Z,38.33
2017-10-09T07:34:29.123Z,27.63
2017-10-09T07:36:57.617Z,25.50
2017-10-09T07:39:25.739Z,33.10
2017-10-09T07:41:53.287Z,41.90
2017-10-09T07:44:20.844Z,30.40
2017-10-09T07:46:48.547Z,30.90
2017-10-09T07:49:16.062Z,28.83
2017-10-09T07:51:43.625Z,39.57
2017-10-09T07:54:11.802Z,31.07
2017-10-09T07:56:39.392Z,34.27
2017-10-09T07:59:06.917Z,32.90
2017-10-09T08:01:34.503Z,30.43
2017-10-09T08:04:02.548Z,28.13
2017-10-09T08:06:30.108Z,41.53
2017-10-09T08:08:57.869Z,26.33
2017-10-09T08:11:25.386Z,25.60
2017-10-09T08:13:53.397Z,33.30
2017-10-09T08:16:21.263Z,33.20
2017-10-09T08:18:48.844Z,28.93
2017-10-09T08:21:16.382Z,26.83
2017-10-09T08:23:44.125Z,28.03
2017-10-09T08:26:12.627Z,32.53
2017-10-09T08:28:40.189Z,31.57
2017-10-09T08:31:07.746Z,29.00
2017-10-09T08:33:35.304Z,31.60
2017-10-09T08:36:02.814Z,36.97
2017-10-09T08:38:30.713Z,37.07
2017-10-09T08:40:58.233Z,34.80
2017-10-09T08:43:25.765Z,36.90
2017-10-09T08:45:53.342Z,33.87
2017-10-09T08:48:20.966Z,35.67
2017-10-09T08:50:49.082Z,28.80
2017-10-09T08:53:18.337Z,24.67
2017-10-09T08:55:46.407Z,25.47
2017-10-09T08:58:16.629Z,29.70
2017-10-09T09:00:44.941Z,23.43
2017-10-09T09:03:13.441Z,24.00
2017-10-09T09:05:41.151Z,26.70
2017-10-09T09:08:09.016Z,21.77
2017-10-09T09:10:36.679Z,25.30
2017-10-09T09:13:06.610Z,22.33
2017-10-09T09:15:34.241Z,28.43
2017-10-09T09:18:02.235Z,27.80
2017-10-09T09:20:30.917Z,21.43
2017-10-09T09:22:58.876Z,23.20
2017-10-09T09:25:29.494Z,26.77
2017-10-09T09:27:57.068Z,22.77
2017-10-09T09:30:25.138Z,27.00
2017-10-09T09:32:53.413Z,23.33
2017-10-09T09:35:21.079Z,21.10
2017-10-09T09:37:49.364Z,28.67
2017-10-09T09:40:19.670Z,25.20
2017-10-09T09:42:48.056Z,24.93
2017-10-09T09:45:15.660Z,22.30
2017-10-09T09:47:45.220Z,20.33
2017-10-09T09:50:13.200Z,22.93
2017-10-09T09:52:41.050Z,19.50
2017-10-09T09:55:09.539Z,22.10
2017-10-09T09:57:37.095Z,21.43
2017-10-09T10:00:05.576Z,21.77
2017-10-09T10:02:33.143Z,23.13
2017-10-09T10:05:00.694Z,18.33
2017-10-09T10:07:28.274Z,18.13
2017-10-09T10:09:55.791Z,17.80
2017-10-09T10:12:23.942Z,21.53
2017-10-09T10:14:52.568Z,20.17
2017-10-09T10:17:20.109Z,21.80
2017-10-09T10:19:48.915Z,14.90
2017-10-09T10:22:16.474Z,22.07
2017-10-09T10:24:44.384Z,19.00
2017-10-09T10:27:13.467Z,21.47
2017-10-09T10:29:43.055Z,15.27
2017-10-09T10:32:10.734Z,16.37
2017-10-09T10:34:39.082Z,14.37
2017-10-09T10:37:08.632Z,23.40
2017-10-09T10:39:36.252Z,17.10
2017-10-09T10:42:04.547Z,13.73
2017-10-09T10:44:32.394Z,19.53
2017-10-09T10:47:02.964Z,17.20
2017-10-09T10:49:30.482Z,14.43
2017-10-09T10:51:58.158Z,13.97
2017-10-09T10:54:25.702Z,16.50
2017-10-09T10:56:53.259Z,19.10
2017-10-09T10:59:21.228Z,17.80
2017-10-09T11:01:48.750Z,20.20
2017-10-09T11:04:16.275Z,14.43
2017-10-09T11:06:43.848Z,15.47
2017-10-09T11:09:11.361Z,13.43
2017-10-09T11:11:38.874Z,16.70
2017-10-09T11:14:06.583Z,14.03
2017-10-09T11:16:34.098Z,15.57
2017-10-09T11:19:01.617Z,10.40
2017-10-09T11:21:29.973Z,10.30
2017-10-09T11:23:58.176Z,17.47
2017-10-09T11:26:28.479Z,11.50
2017-10-09T11:28:57.347Z,12.97
2017-10-09T11:31:25.006Z,14.27
2017-10-09T11:33:53.508Z,14.83
2017-10-09T11:36:21.272Z,9.53
2017-10-09T11:38:50.162Z,15.50
2017-10-09T11:41:17.757Z,12.33
2017-10-09T11:43:45.566Z,12.47
2017-10-09T11:46:13.086Z,12.10
2017-10-09T11:48:42.128Z,13.27
2017-10-09T11:51:11.134Z,11.87
2017-10-09T11:53:38.703Z,13.17
2017-10-09T11:56:06.250Z,11.00
2017-10-09T11:58:35.131Z,15.40
2017-10-09T12:01:02.700Z,11.33
2017-10-09T12:03:30.264Z,15.00
2017-10-09T12:05:59.046Z,13.67
2017-10-09T12:08:26.622Z,10.13
2017-10-09T12:10:54.638Z,13.77
2017-10-09T12:13:22.853Z,16.60
2017-10-09T12:15:50.385Z,13.00
2017-10-09T12:18:18.804Z,10.13
2017-10-09T12:20:46.655Z,11.67
2017-10-09T12:23:14.214Z,8.53
2017-10-09T12:25:41.723Z,9.40
2017-10-09T12:28:09.888Z,8.53
2017-10-09T12:30:37.505Z,12.10
2017-10-09T12:33:05.062Z,10.17
2017-10-09T12:35:32.864Z,14.27
2017-10-09T12:38:01.179Z,11.73
2017-10-09T12:40:29.509Z,11.60
2017-10-09T12:42:57.786Z,9.17
2017-10-09T12:45:25.324Z,14.67
2017-10-09T12:47:52.938Z,8.70
2017-10-09T12:50:21.749Z,8.80
2017-10-09T12:52:49.435Z,10.80
2017-10-09T12:55:17.594Z,7.13
2017-10-09T12:57:45.674Z,4.63
2017-10-09T13:00:14.242Z,5.43
2017-10-09T13:02:41.919Z,8.13
2017-10-09T13:05:09.685Z,5.90
2017-10-09T13:07:37.298Z,7.63
2017-10-09T13:10:04.904Z,7.50
2017-10-09T13:12:32.767Z,4.63
2017-10-09T13:15:00.329Z,7.63
2017-10-09T13:17:27.945Z,6.27
2017-10-09T13:19:57.646Z,7.27
2017-10-09T13:22:25.359Z,7.90
2017-10-09T13:24:54.879Z,6.77
2017-10-09T13:27:22.834Z,10.90
2017-10-09T13:29:50.393Z,8.23
2017-10-09T13:32:18.266Z,9.47
2017-10-09T13:34:45.923Z,6.90
2017-10-09T13:37:13.481Z,11.63
2017-10-09T13:39:41.023Z,11.03
2017-10-09T13:42:08.711Z,7.70
2017-10-09T13:44:36.255Z,6.47
2017-10-09T13:47:03.778Z,6.20
2017-10-09T13:49:31.526Z,7.37
2017-10-09T13:51:59.039Z,7.93
2017-10-09T13:54:26.597Z,7.77
2017-10-09T13:56:54.263Z,8.73
2017-10-09T13:59:21.821Z,5.80
2017-10-09T14:01:49.390Z,6.40
2017-10-09T14:04:17.166Z,5.77
2017-10-09T14:06:44.718Z,4.97
2017-10-09T14:09:12.467Z,4.50
2017-10-09T14:11:40.192Z,5.50
2017-10-09T14:14:07.942Z,9.47
2017-10-09T14:16:35.454Z,6.23
2017-10-09T14:19:03.209Z,4.40
2017-10-09T14:21:30.726Z,6.43
2017-10-09T14:23:58.410Z,13.90
2017-10-09T14:26:26.198Z,8.07
2017-10-09T14:28:54.168Z,5.20
2017-10-09T14:41:11.972Z,6.90
2017-10-09T14:43:39.791Z,5.30
2017-10-09T14:46:07.309Z,9.73
2017-10-09T14:48:35.259Z,7.20
2017-10-09T14:51:03.320Z,3.77
2017-10-09T14:53:30.931Z,5.63
2017-10-09T14:55:58.742Z,3.60
2017-10-09T14:58:26.452Z,8.83
2017-10-09T15:00:54.181Z,8.20
2017-10-09T15:03:22.127Z,2.50
2017-10-09T15:05:49.644Z,2.33
2017-10-09T15:08:18.128Z,2.93
2017-10-09T15:10:45.867Z,7.10
2017-10-09T15:13:13.413Z,3.30
2017-10-09T15:15:40.924Z,6.07
2017-10-09T15:18:08.839Z,4.13
2017-10-09T15:20:36.902Z,9.00
2017-10-09T15:23:04.946Z,10.63
2017-10-09T15:25:32.737Z,3.10
2017-10-09T15:28:00.400Z,8.30
2017-10-09T15:30:29.495Z,4.53
2017-10-09T15:32:57.362Z,8.93
2017-10-09T15:35:25.495Z,10.30
2017-10-09T15:37:53.400Z,6.80
2017-10-09T15:40:21.573Z,4.67
2017-10-09T15:42:49.385Z,6.60
2017-10-09T15:45:17.007Z,5.17
2017-10-09T15:47:44.660Z,6.57
2017-10-09T15:50:12.303Z,4.00
2017-10-09T15:52:39.931Z,8.00
2017-10-09T15:55:08.465Z,3.70
2017-10-09T15:57:36.146Z,5.73
2017-10-09T16:00:03.993Z,6.47
2017-10-09T16:02:32.590Z,9.40
2017-10-09T16:05:00.443Z,6.57
2017-10-09T16:07:28.000Z,9.10
2017-10-09T16:09:55.970Z,9.70
2017-10-09T16:12:23.753Z,7.03
2017-10-09T16:14:51.343Z,8.30
2017-10-09T16:17:19.383Z,7.60
2017-10-09T16:19:47.522Z,12.80
2017-10-09T16:22:15.935Z,18.47
2017-10-09T16:24:44.641Z,8.10
2017-10-09T16:27:12.468Z,7.90
2017-10-09T16:29:40.456Z,12.80
2017-10-09T16:32:08.548Z,9.67
2017-10-09T16:34:36.190Z,15.23
2017-10-09T16:37:04.478Z,15.43
2017-10-09T16:39:32.619Z,9.07
2017-10-09T16:42:00.947Z,8.70
2017-10-09T16:44:28.658Z,13.27
2017-10-09T16:46:56.750Z,10.63
2017-10-09T16:49:24.524Z,14.03
2017-10-09T16:51:52.258Z,10.20
2017-10-09T16:54:20.833Z,11.97
2017-10-09T16:56:48.506Z,14.53
2017-10-09T16:59:16.688Z,16.93
2017-10-09T17:01:44.824Z,10.93
2017-10-09T17:04:12.462Z,8.57
2017-10-09T17:06:40.177Z,12.27
2017-10-09T17:09:08.106Z,7.83
2017-10-09T17:11:36.421Z,13.50
2017-10-09T17:14:04.245Z,20.27
2017-10-09T17:16:32.764Z,11.47
2017-10-09T17:19:00.550Z,10.70
2017-10-09T17:21:29.009Z,14.80
2017-10-09T17:23:57.310Z,9.13
2017-10-09T17:26:25.196Z,9.87
2017-10-09T17:28:53.035Z,15.73
2017-10-09T17:31:21.500Z,10.60
2017-10-09T17:33:49.423Z,11.40
2017-10-09T17:36:17.291Z,14.20
2017-10-09T17:38:45.334Z,8.97
2017-10-09T17:41:13.783Z,11.93
2017-10-09T17:43:42.283Z,12.50
2017-10-09T17:46:10.358Z,21.17
2017-10-09T17:48:38.253Z,10.67
2017-10-09T17:51:06.040Z,11.20
2017-10-09T17:53:33.831Z,12.57
2017-10-09T17:56:01.605Z,13.63
2017-10-09T17:58:29.702Z,14.90
2017-10-09T18:00:57.661Z,24.10
2017-10-09T18:03:26.287Z,13.57
2017-10-09T18:05:54.700Z,18.60
2017-10-09T18:08:24.035Z,11.80
2017-10-09T18:10:51.766Z,17.63
2017-10-09T18:13:19.536Z,14.87
2017-10-09T18:15:47.620Z,20.13
2017-10-09T18:18:15.371Z,19.33
2017-10-09T18:20:43.355Z,12.20
2017-10-09T18:23:11.221Z,22.67
2017-10-09T18:25:39.070Z,12.53
2017-10-09T18:28:06.940Z,22.33
2017-10-09T18:30:35.051Z,19.40
2017-10-09T18:33:02.794Z,13.77
2017-10-09T18:35:31.452Z,13.97
2017-10-09T18:38:03.515Z,18.10
2017-10-09T18:40:31.304Z,18.93
2017-10-09T18:42:59.658Z,20.53
2017-10-09T18:45:27.832Z,14.70
2017-10-09T18:47:55.818Z,20.43
2017-10-09T18:50:24.147Z,16.70
2017-10-09T18:52:56.287Z,16.63
2017-10-09T18:55:23.999Z,17.63
2017-10-09T18:57:51.790Z,12.70
2017-10-09T19:00:20.011Z,14.83
2017-10-09T19:02:47.913Z,18.07
2017-10-09T19:05:15.883Z,15.20
2017-10-09T19:07:46.206Z,23.00
2017-10-09T19:10:14.400Z,16.13
2017-10-09T19:12:42.974Z,17.17
2017-10-09T19:15:11.345Z,12.97
2017-10-09T19:17:39.132Z,23.27
2017-10-09T19:20:06.870Z,16.53
2017-10-09T19:22:34.661Z,23.10
2017-10-09T19:25:03.258Z,18.12
2017-10-09T19:27:31.595Z,17.10
2017-10-09T19:30:00.818Z,15.30
2017-10-09T19:32:28.559Z,20.30
2017-10-09T19:34:56.936Z,18.20
2017-10-09T19:37:25.415Z,17.10
2017-10-09T19:39:53.794Z,18.33
2017-10-09T19:42:21.676Z,18.60
2017-10-09T19:44:50.655Z,18.25
2017-10-09T19:47:18.533Z,20.92
2017-10-09T19:49:46.590Z,16.33
2017-10-09T19:52:14.867Z,16.50
2017-10-09T19:54:42.726Z,17.35
2017-10-09T19:57:10.478Z,23.25
2017-10-09T19:59:38.840Z,17.10
2017-10-09T20:02:06.847Z,18.02
2017-10-09T20:04:35.393Z,23.65
2017-10-09T20:07:03.516Z,16.65
2017-10-09T20:09:31.387Z,31.40
2017-10-09T20:11:59.133Z,17.27
2017-10-09T20:14:27.509Z,25.58
2017-10-09T20:16:56.398Z,30.45
2017-10-09T20:19:24.059Z,21.37
2017-10-09T20:21:52.847Z,19.65
2017-10-09T20:24:20.732Z,26.65
2017-10-09T20:26:49.007Z,18.95
2017-10-09T20:29:16.966Z,20.42
2017-10-09T20:31:44.737Z,27.80
2017-10-09T20:34:12.692Z,17.73
2017-10-09T20:36:40.453Z,19.52
2017-10-09T20:39:08.012Z,20.10
2017-10-09T20:41:35.619Z,27.35
2017-10-09T20:44:03.369Z,20.05
2017-10-09T20:46:30.919Z,18.77
2017-10-09T20:48:58.466Z,24.00
2017-10-09T20:51:26.627Z,22.45
2017-10-09T20:53:54.562Z,24.17
2017-10-09T20:56:22.215Z,28.02
2017-10-09T20:58:49.920Z,27.40
2017-10-09T21:01:17.478Z,24.60
2017-10-09T21:03:45.038Z,20.33
2017-10-09T21:06:12.703Z,20.10
2017-10-09T21:08:40.365Z,21.60
2017-10-09T21:11:10.071Z,21.25
2017-10-09T21:13:38.182Z,21.42
2017-10-09T21:16:05.887Z,20.20
2017-10-09T21:18:33.469Z,19.95
2017-10-09T21:21:04.692Z,18.37
2017-10-09T21:23:32.215Z,18.45
2017-10-09T21:25:59.767Z,19.65
2017-10-09T21:28:27.490Z,22.92
2017-10-09T21:30:55.011Z,25.10
2017-10-09T21:33:22.554Z,19.73
2017-10-09T21:35:50.474Z,25.58
2017-10-09T21:38:18.058Z,19.80
2017-10-09T21:40:45.583Z,17.58
2017-10-09T21:43:13.363Z,17.40
2017-10-09T21:45:40.916Z,21.95
2017-10-09T21:48:08.440Z,22.55
2017-10-09T21:50:36.035Z,19.00
2017-10-09T21:53:03.593Z,18.73
2017-10-09T21:55:31.154Z,19.50
2017-10-09T21:57:58.735Z,21.70
2017-10-09T22:00:26.262Z,16.80
2017-10-09T22:02:53.787Z,19.75
2017-10-09T22:05:21.391Z,18.55
2017-10-09T22:07:48.949Z,16.95
2017-10-09T22:10:16.514Z,19.65
2017-10-09T22:12:44.111Z,18.17
2017-10-09T22:15:11.627Z,19.10
2017-10-09T22:17:39.152Z,15.98
2017-10-09T22:20:06.965Z,14.35
2017-10-09T22:22:34.506Z,17.77
2017-10-09T22:25:02.097Z,19.40
2017-10-09T22:27:29.942Z,18.77
2017-10-09T22:29:57.493Z,13.70
2017-10-09T22:32:25.018Z,17.02
2017-10-09T22:34:52.567Z,20.98
2017-10-09T22:37:20.179Z,21.62
2017-10-09T22:39:47.690Z,13.65
2017-10-09T22:42:15.572Z,15.35
2017-10-09T22:44:43.092Z,13.10
2017-10-09T22:47:10.639Z,17.23
2017-10-09T22:49:38.458Z,18.70
2017-10-09T22:52:05.998Z,20.12
2017-10-09T22:54:41.583Z,13.30
2017-10-09T22:57:09.107Z,13.38
2017-10-09T22:59:36.635Z,15.93
2017-10-09T23:02:04.202Z,26.17
2017-10-09T23:04:31.724Z,17.00
2017-10-09T23:06:59.275Z,12.32
2017-10-09T23:09:27.039Z,18.95
2017-10-09T23:11:54.598Z,12.35
2017-10-09T23:14:22.124Z,18.98
2017-10-09T23:16:50.126Z,23.17
2017-10-09T23:19:17.685Z,24.23
2017-10-09T23:21:45.245Z,18.60
2017-10-09T23:24:13.113Z,14.10
2017-10-09T23:26:40.635Z,14.65
2017-10-09T23:29:09.152Z,20.45
2017-10-09T23:31:36.722Z,15.80
2017-10-09T23:34:04.269Z,11.40
2017-10-09T23:36:31.829Z,17.45
2017-10-09T23:38:59.795Z,14.50
2017-10-09T23:41:27.356Z,13.23
2017-10-09T23:43:54.874Z,13.75
2017-10-09T23:46:22.654Z,11.60
2017-10-09T23:48:50.171Z,9.18
2017-10-09T23:51:17.685Z,11.82
2017-10-09T23:53:45.363Z,16.73
2017-10-09T23:56:12.914Z,13.60
2017-10-09T23:58:40.474Z,12.27
